createdAt,value
2019-04-07T00:00:06.323Z,6.82
2019-04-07T00:02:37.677Z,6.72
2019-04-07T00:05:12.398Z,6.79
2019-04-07T00:07:39.084Z,6.79
2019-04-07T00:10:09.861Z,6.90
2019-04-07T00:12:39.489Z,6.97
2019-04-07T00:15:09.155Z,6.76
2019-04-07T00:17:38.757Z,6.76
2019-04-07T00:20:08.793Z,6.92
2019-04-07T00:22:38.076Z,6.90
2019-04-07T00:25:07.823Z,6.76
2019-04-07T00:27:36.879Z,6.44
2019-04-07T00:32:49.097Z,6.23
2019-04-07T00:35:26.890Z,6.32
2019-04-07T00:37:50.761Z,6.57
2019-04-07T00:40:20.815Z,6.57
2019-04-07T00:42:50.403Z,6.62
2019-04-07T00:45:20.592Z,6.39
2019-04-07T00:47:50.534Z,6.44
2019-04-07T00:50:20.426Z,6.26
2019-04-07T00:52:50.222Z,6.03
2019-04-07T00:55:24.283Z,6.03
2019-04-07T00:58:13.698Z,5.89
2019-04-07T01:00:43.455Z,5.67
2019-04-07T01:03:17.339Z,5.71
2019-04-07T01:05:53.311Z,5.66
2019-04-07T01:08:26.286Z,5.75
2019-04-07T01:10:55.901Z,6.03
2019-04-07T01:13:26.268Z,6.03
2019-04-07T01:15:56.005Z,5.88
2019-04-07T01:18:26.985Z,6.05
2019-04-07T01:20:56.118Z,6.07
2019-04-07T01:23:24.962Z,5.74
2019-04-07T01:25:54.256Z,5.78
2019-04-07T01:28:23.137Z,5.73
2019-04-07T01:30:52.492Z,5.73
2019-04-07T01:33:21.858Z,5.87
2019-04-07T01:35:52.300Z,5.85
2019-04-07T01:38:21.462Z,6.06
2019-04-07T01:40:59.858Z,6.21
2019-04-07T01:43:42.041Z,5.89
2019-04-07T01:46:24.585Z,5.73
2019-04-07T01:49:12.807Z,5.91
2019-04-07T01:51:48.743Z,5.92
2019-04-07T01:54:33.981Z,5.87
2019-04-07T01:57:41.104Z,6.03
2019-04-07T02:00:22.979Z,5.93
2019-04-07T02:03:17.544Z,5.75
2019-04-07T02:06:13.529Z,5.73
2019-04-07T02:09:21.439Z,5.73
2019-04-07T02:12:09.463Z,6.00
2019-04-07T02:14:57.965Z,6.00
2019-04-07T02:17:51.585Z,5.93
2019-04-07T02:21:07.193Z,5.28
2019-04-07T02:27:05.981Z,5.43
2019-04-07T02:30:01.323Z,5.44
2019-04-07T02:32:40.849Z,5.45
2019-04-07T02:35:36.482Z,5.58
2019-04-07T02:38:17.676Z,5.61
2019-04-07T02:40:59.878Z,5.03
2019-04-07T02:43:47.495Z,5.14
2019-04-07T02:46:36.607Z,5.24
2019-04-07T02:49:24.511Z,5.26
2019-04-07T02:52:11.302Z,5.32
2019-04-07T02:55:02.700Z,5.37
2019-04-07T02:57:40.523Z,5.12
2019-04-07T03:00:20.358Z,5.06
2019-04-07T03:03:20.122Z,4.55
2019-04-07T03:06:08.859Z,4.55
2019-04-07T03:08:55.908Z,4.58
2019-04-07T03:11:51.052Z,4.78
2019-04-07T03:14:39.677Z,4.70
2019-04-07T03:17:14.054Z,5.06
2019-04-07T03:20:10.532Z,5.06
2019-04-07T03:22:50.633Z,4.52
2019-04-07T03:25:42.276Z,4.52
2019-04-07T03:28:40.678Z,4.75
2019-04-07T03:31:22.499Z,4.73
2019-04-07T03:34:14.453Z,4.73
2019-04-07T03:37:20.293Z,4.92
2019-04-07T03:39:41.081Z,5.10
2019-04-07T03:42:24.844Z,5.45
2019-04-07T03:45:02.621Z,5.18
2019-04-07T03:47:52.909Z,5.07
2019-04-07T03:50:34.856Z,5.08
2019-04-07T03:53:35.672Z,5.02
2019-04-07T03:56:43.663Z,4.74
2019-04-07T03:59:35.311Z,4.66
2019-04-07T04:02:44.349Z,4.67
2019-04-07T04:05:52.539Z,4.79
2019-04-07T04:08:41.772Z,4.88
2019-04-07T04:11:49.672Z,4.68
2019-04-07T04:14:23.911Z,5.13
2019-04-07T04:16:54.247Z,5.13
2019-04-07T04:19:23.613Z,5.28
2019-04-07T04:21:52.730Z,4.97
2019-04-07T04:24:22.890Z,4.97
2019-04-07T04:27:07.300Z,4.81
2019-04-07T04:29:38.161Z,4.81
2019-04-07T04:32:07.718Z,4.60
2019-04-07T04:34:36.825Z,4.64
2019-04-07T04:37:11.168Z,4.78
2019-04-07T04:39:41.131Z,4.89
2019-04-07T04:42:10.442Z,4.63
2019-04-07T04:44:40.422Z,4.59
2019-04-07T04:47:10.197Z,4.47
2019-04-07T04:49:40.284Z,4.47
2019-04-07T04:52:09.482Z,4.52
2019-04-07T04:54:38.851Z,4.47
2019-04-07T04:57:09.274Z,4.59
2019-04-07T04:59:38.752Z,4.95
2019-04-07T05:02:06.858Z,5.18
2019-04-07T05:04:35.950Z,5.31
2019-04-07T05:07:05.672Z,5.43
2019-04-07T05:09:44.006Z,5.54
2019-04-07T05:12:08.374Z,5.83
2019-04-07T05:14:37.750Z,6.21
2019-04-07T05:17:15.284Z,6.68
2019-04-07T05:19:44.604Z,6.47
2019-04-07T05:22:15.255Z,6.57
2019-04-07T05:24:44.489Z,6.57
2019-04-07T05:27:13.044Z,6.99
2019-04-07T05:29:42.522Z,7.59
2019-04-07T05:32:12.210Z,8.08
2019-04-07T05:34:42.298Z,7.99
2019-04-07T05:37:12.096Z,8.39
2019-04-07T05:39:44.289Z,10.03
2019-04-07T05:42:13.781Z,11.02
2019-04-07T05:44:43.300Z,11.67
2019-04-07T05:47:14.426Z,12.41
2019-04-07T05:49:43.372Z,12.19
2019-04-07T05:52:12.799Z,12.19
2019-04-07T05:54:42.865Z,10.47
2019-04-07T05:57:13.428Z,9.56
2019-04-07T05:59:43.643Z,10.30
2019-04-07T06:02:13.222Z,10.30
2019-04-07T06:04:43.556Z,10.30
2019-04-07T06:07:13.977Z,10.36
2019-04-07T06:09:43.914Z,9.90
2019-04-07T06:12:13.516Z,9.78
2019-04-07T06:14:46.488Z,9.44
2019-04-07T06:17:15.516Z,9.17
2019-04-07T06:19:44.451Z,9.21
2019-04-07T06:22:17.463Z,9.49
2019-04-07T06:24:46.051Z,9.49
2019-04-07T06:27:16.899Z,9.50
2019-04-07T06:29:46.725Z,9.75
2019-04-07T06:32:15.666Z,9.30
2019-04-07T06:34:45.896Z,9.30
2019-04-07T06:37:16.430Z,9.83
2019-04-07T06:39:49.378Z,10.36
2019-04-07T06:42:17.613Z,10.24
2019-04-07T06:44:50.321Z,10.49
2019-04-07T06:47:43.318Z,10.59
2019-04-07T06:50:27.947Z,10.62
2019-04-07T06:53:04.494Z,10.93
2019-04-07T06:56:04.104Z,14.73
2019-04-07T06:58:53.408Z,14.73
2019-04-07T07:01:44.925Z,16.46
2019-04-07T07:04:33.863Z,17.62
2019-04-07T07:07:13.111Z,18.34
2019-04-07T07:10:03.201Z,18.85
2019-04-07T07:13:11.594Z,17.89
2019-04-07T07:15:48.264Z,19.02
2019-04-07T07:18:47.102Z,19.50
2019-04-07T07:21:24.528Z,19.98
2019-04-07T07:23:53.009Z,19.98
2019-04-07T07:26:22.105Z,20.93
2019-04-07T07:28:52.121Z,20.25
2019-04-07T07:31:24.720Z,21.22
2019-04-07T07:33:53.969Z,22.56
2019-04-07T07:36:24.139Z,22.31
2019-04-07T07:39:02.216Z,21.25
2019-04-07T07:41:33.093Z,19.79
2019-04-07T07:44:03.815Z,19.32
2019-04-07T07:46:35.541Z,19.82
2019-04-07T07:49:04.431Z,20.02
2019-04-07T07:51:33.538Z,20.56
2019-04-07T07:54:03.570Z,24.16
2019-04-07T07:56:32.150Z,26.15
2019-04-07T07:59:02.561Z,26.15
2019-04-07T08:01:31.117Z,27.89
2019-04-07T08:04:00.801Z,29.43
2019-04-07T08:06:31.706Z,29.99
2019-04-07T08:09:10.007Z,31.47
2019-04-07T08:11:34.394Z,30.74
2019-04-07T08:14:04.222Z,30.74
2019-04-07T08:16:34.624Z,31.20
2019-04-07T08:19:03.995Z,31.29
2019-04-07T08:21:33.740Z,32.76
2019-04-07T08:24:03.588Z,33.95
2019-04-07T08:26:32.016Z,33.53
2019-04-07T08:29:05.740Z,33.53
2019-04-07T08:31:33.762Z,31.29
2019-04-07T08:34:03.912Z,31.29
2019-04-07T08:36:33.856Z,31.51
2019-04-07T08:39:07.265Z,31.64
2019-04-07T08:41:39.726Z,31.18
2019-04-07T08:44:08.256Z,31.36
2019-04-07T08:46:41.633Z,31.23
2019-04-07T08:49:08.700Z,30.35
2019-04-07T08:51:38.045Z,29.54
2019-04-07T08:54:07.453Z,30.43
2019-04-07T08:56:36.691Z,30.48
2019-04-07T08:59:09.486Z,30.51
2019-04-07T09:01:38.062Z,30.86
2019-04-07T09:04:07.688Z,32.11
2019-04-07T09:06:37.427Z,31.81
2019-04-07T09:09:08.049Z,33.41
2019-04-07T09:11:40.339Z,32.86
2019-04-07T09:14:09.433Z,30.91
2019-04-07T09:16:59.313Z,29.09
2019-04-07T09:19:47.299Z,29.09
2019-04-07T09:22:37.827Z,27.99
2019-04-07T09:25:27.269Z,26.83
2019-04-07T09:28:11.939Z,26.83
2019-04-07T09:31:08.427Z,28.91
2019-04-07T09:34:11.548Z,31.57
2019-04-07T09:37:06.958Z,33.59
2019-04-07T09:40:04.425Z,33.59
2019-04-07T09:42:41.191Z,31.49
2019-04-07T09:45:38.585Z,30.33
2019-04-07T09:48:34.438Z,29.44
2019-04-07T09:51:39.758Z,30.18
2019-04-07T09:54:25.586Z,30.93
2019-04-07T09:57:13.965Z,31.26
2019-04-07T09:59:59.354Z,31.81
2019-04-07T10:02:47.054Z,33.51
2019-04-07T10:05:48.613Z,33.26
2019-04-07T10:08:40.587Z,36.31
2019-04-07T10:11:34.657Z,36.31
2019-04-07T10:14:30.729Z,35.51
2019-04-07T10:17:22.252Z,35.83
2019-04-07T10:20:09.607Z,37.26
2019-04-07T10:22:57.548Z,37.35
2019-04-07T10:25:45.564Z,38.41
2019-04-07T10:28:45.403Z,38.50
2019-04-07T10:31:24.594Z,38.50
2019-04-07T10:34:03.308Z,37.63
2019-04-07T10:36:56.753Z,37.18
2019-04-07T10:39:50.056Z,37.88
2019-04-07T10:42:26.075Z,37.52
2019-04-07T10:45:19.604Z,35.35
2019-04-07T10:48:13.918Z,33.20
2019-04-07T10:51:01.674Z,33.20
2019-04-07T10:53:42.532Z,32.58
2019-04-07T10:56:31.963Z,32.58
2019-04-07T10:59:32.799Z,32.87
2019-04-07T11:02:20.435Z,33.88
2019-04-07T11:05:12.011Z,34.61
2019-04-07T11:08:02.526Z,35.61
2019-04-07T11:10:50.978Z,34.82
2019-04-07T11:13:38.765Z,34.82
2019-04-07T11:16:17.438Z,34.86
2019-04-07T11:30:04.896Z,36.65
2019-04-07T11:32:50.131Z,37.04
2019-04-07T11:35:45.571Z,37.92
2019-04-07T11:38:31.048Z,34.34
2019-04-07T11:41:22.697Z,34.34
2019-04-07T11:44:23.511Z,34.95
2019-04-07T11:47:12.359Z,34.19
2019-04-07T11:49:52.951Z,32.13
2019-04-07T11:52:40.843Z,31.54
2019-04-07T11:55:25.760Z,32.60
2019-04-07T11:58:12.266Z,33.11
2019-04-07T12:01:00.631Z,33.27
2019-04-07T12:03:55.784Z,28.68
2019-04-07T12:06:52.606Z,28.68
2019-04-07T12:09:39.497Z,26.90
2019-04-07T12:12:28.731Z,24.73
2019-04-07T12:15:14.213Z,24.73
2019-04-07T12:18:03.421Z,23.70
2019-04-07T12:20:44.060Z,23.86
2019-04-07T12:23:32.733Z,24.27
2019-04-07T12:26:12.775Z,24.78
2019-04-07T12:29:04.539Z,24.25
2019-04-07T12:31:59.656Z,25.17
2019-04-07T12:34:49.748Z,24.70
2019-04-07T12:37:41.309Z,23.75
2019-04-07T12:40:22.452Z,23.34
2019-04-07T12:43:02.480Z,21.10
2019-04-07T12:46:06.714Z,21.43
2019-04-07T12:48:43.462Z,21.48
2019-04-07T12:51:44.827Z,22.75
2019-04-07T12:54:29.569Z,22.75
2019-04-07T12:57:23.010Z,22.38
2019-04-07T13:00:22.659Z,21.98
2019-04-07T13:03:08.907Z,22.48
2019-04-07T13:06:06.241Z,23.47
2019-04-07T13:08:59.508Z,22.77
2019-04-07T13:11:50.081Z,22.77
2019-04-07T13:14:40.088Z,22.86
2019-04-07T13:17:19.475Z,22.72
2019-04-07T13:20:02.072Z,22.34
2019-04-07T13:22:58.906Z,22.08
2019-04-07T13:25:38.622Z,22.08
2019-04-07T13:28:15.242Z,22.99
2019-04-07T13:31:04.952Z,23.05
2019-04-07T13:33:48.519Z,22.48
2019-04-07T13:36:39.643Z,23.04
2019-04-07T13:39:29.340Z,23.09
2019-04-07T13:42:20.823Z,22.99
2019-04-07T13:45:16.884Z,22.78
2019-04-07T13:47:56.769Z,22.61
2019-04-07T13:50:35.518Z,22.43
2019-04-07T13:53:27.020Z,21.46
2019-04-07T13:56:31.865Z,21.46
2019-04-07T13:59:39.993Z,21.73
2019-04-07T14:02:30.321Z,23.02
2019-04-07T14:05:11.065Z,22.88
2019-04-07T14:07:58.958Z,22.88
2019-04-07T14:10:48.213Z,22.67
2019-04-07T14:13:56.548Z,22.49
2019-04-07T14:17:05.048Z,22.90
2019-04-07T14:19:55.474Z,22.95
2019-04-07T14:22:53.976Z,23.23
2019-04-07T14:25:51.060Z,23.23
2019-04-07T14:28:30.754Z,23.12
2019-04-07T14:31:29.219Z,23.04
2019-04-07T14:34:23.893Z,23.03
2019-04-07T14:37:13.527Z,23.15
2019-04-07T14:39:47.765Z,23.12
2019-04-07T14:42:42.883Z,23.33
2019-04-07T14:45:27.083Z,22.89
2019-04-07T14:48:02.152Z,22.28
2019-04-07T14:50:53.813Z,22.57
2019-04-07T14:53:30.619Z,22.22
2019-04-07T14:56:08.920Z,22.00
2019-04-07T14:59:00.649Z,22.19
2019-04-07T15:01:39.563Z,22.23
2019-04-07T15:04:08.422Z,22.01
2019-04-07T15:06:37.823Z,22.13
2019-04-07T15:09:13.589Z,22.72
2019-04-07T15:11:49.623Z,22.32
2019-04-07T15:14:19.213Z,22.32
2019-04-07T15:16:49.104Z,22.70
2019-04-07T15:19:18.130Z,22.74
2019-04-07T15:21:48.832Z,22.24
2019-04-07T15:24:18.712Z,22.55
2019-04-07T15:26:50.088Z,22.14
2019-04-07T15:29:19.754Z,22.13
2019-04-07T15:31:51.035Z,21.69
2019-04-07T15:34:20.149Z,21.21
2019-04-07T15:36:50.096Z,21.24
2019-04-07T15:39:20.446Z,21.25
2019-04-07T15:41:49.592Z,21.15
2019-04-07T15:44:19.603Z,21.26
2019-04-07T15:46:50.873Z,21.26
2019-04-07T15:49:20.420Z,20.96
2019-04-07T15:51:50.295Z,21.10
2019-04-07T15:54:21.504Z,21.04
2019-04-07T15:56:51.596Z,20.73
2019-04-07T15:59:21.295Z,20.58
2019-04-07T16:01:50.623Z,20.78
2019-04-07T16:04:26.225Z,20.58
2019-04-07T16:06:53.122Z,20.61
2019-04-07T16:09:33.361Z,20.73
2019-04-07T16:11:53.294Z,20.89
2019-04-07T16:14:23.071Z,20.53
2019-04-07T16:16:53.614Z,20.53
2019-04-07T16:19:35.752Z,20.44
2019-04-07T16:21:54.918Z,20.30
2019-04-07T16:24:25.683Z,20.30
2019-04-07T16:26:54.719Z,20.22
2019-04-07T16:29:24.123Z,19.82
2019-04-07T16:31:55.876Z,19.51
2019-04-07T16:34:24.517Z,19.27
2019-04-07T16:36:57.336Z,19.51
2019-04-07T16:39:24.584Z,19.51
2019-04-07T16:41:54.511Z,18.90
2019-04-07T16:44:24.597Z,18.90
2019-04-07T16:46:57.267Z,18.90
2019-04-07T16:49:25.752Z,18.90
2019-04-07T16:52:00.595Z,18.85
2019-04-07T16:54:28.066Z,18.69
2019-04-07T16:56:58.354Z,18.69
2019-04-07T16:59:27.563Z,18.60
2019-04-07T17:01:57.010Z,18.77
2019-04-07T17:04:27.137Z,18.77
2019-04-07T17:07:02.361Z,18.57
2019-04-07T17:09:29.118Z,18.70
2019-04-07T17:11:58.964Z,18.56
2019-04-07T17:14:31.958Z,18.54
2019-04-07T17:17:00.167Z,18.57
2019-04-07T17:19:30.103Z,18.53
2019-04-07T17:22:01.925Z,18.59
2019-04-07T17:24:32.310Z,18.65
2019-04-07T17:27:03.113Z,18.75
2019-04-07T17:29:34.834Z,18.78
2019-04-07T17:32:06.032Z,18.51
2019-04-07T17:34:36.796Z,18.41
2019-04-07T17:37:07.249Z,18.40
2019-04-07T17:39:55.955Z,18.36
2019-04-07T17:42:27.269Z,18.41
2019-04-07T17:45:15.120Z,18.35
2019-04-07T17:48:07.079Z,18.37
2019-04-07T17:51:01.084Z,18.17
2019-04-07T17:53:53.899Z,18.04
2019-04-07T17:56:41.807Z,17.89
2019-04-07T17:59:31.082Z,17.86
2019-04-07T18:02:19.816Z,17.69
2019-04-07T18:05:26.155Z,17.61
2019-04-07T18:08:12.125Z,17.47
2019-04-07T18:11:08.742Z,17.42
2019-04-07T18:14:05.677Z,17.40
2019-04-07T18:16:46.209Z,17.33
2019-04-07T18:19:33.746Z,17.37
2019-04-07T18:22:25.660Z,17.37
2019-04-07T18:25:05.165Z,17.16
2019-04-07T18:27:59.938Z,16.97
2019-04-07T18:31:03.053Z,17.05
2019-04-07T18:33:53.644Z,17.25
2019-04-07T18:36:42.642Z,17.25
2019-04-07T18:39:31.793Z,17.08
2019-04-07T18:42:31.041Z,17.04
2019-04-07T18:45:25.196Z,16.95
2019-04-07T18:48:13.681Z,16.67
2019-04-07T18:51:02.894Z,16.45
2019-04-07T18:53:57.721Z,16.47
2019-04-07T18:56:44.098Z,16.45
2019-04-07T18:59:25.888Z,16.62
2019-04-07T19:02:16.437Z,16.65
2019-04-07T19:05:08.319Z,16.57
2019-04-07T19:07:58.353Z,16.53
2019-04-07T19:11:06.936Z,16.59
2019-04-07T19:13:49.010Z,16.70
2019-04-07T19:16:34.813Z,16.62
2019-04-07T19:19:33.377Z,16.64
2019-04-07T19:22:27.460Z,16.58
2019-04-07T19:25:19.250Z,16.58
2019-04-07T19:28:03.339Z,16.40
2019-04-07T19:30:45.361Z,16.25
2019-04-07T19:33:24.546Z,15.89
2019-04-07T19:36:20.427Z,15.96
2019-04-07T19:39:25.055Z,15.96
2019-04-07T19:42:08.786Z,15.48
2019-04-07T19:44:59.523Z,15.38
2019-04-07T19:47:48.972Z,15.72
2019-04-07T19:50:37.039Z,15.72
2019-04-07T19:53:45.584Z,15.37
2019-04-07T19:56:40.614Z,15.28
2019-04-07T19:59:28.094Z,15.29
2019-04-07T20:02:20.323Z,14.96
2019-04-07T20:05:12.300Z,14.95
2019-04-07T20:08:05.667Z,15.44
2019-04-07T20:10:49.891Z,15.39
2019-04-07T20:13:38.384Z,15.37
2019-04-07T20:16:26.166Z,15.54
2019-04-07T20:19:31.376Z,15.64
2019-04-07T20:22:11.128Z,15.63
2019-04-07T20:25:00.844Z,15.91
2019-04-07T20:27:57.353Z,15.90
2019-04-07T20:30:46.969Z,15.48
2019-04-07T20:33:39.499Z,15.43
2019-04-07T20:36:27.765Z,15.30
2019-04-07T20:39:06.065Z,14.99
2019-04-07T20:42:16.791Z,14.69
2019-04-07T20:45:24.088Z,14.88
2019-04-07T20:48:13.582Z,14.74
2019-04-07T20:50:56.876Z,14.73
2019-04-07T20:53:40.867Z,14.73
2019-04-07T20:56:23.312Z,14.45
2019-04-07T20:59:11.758Z,14.29
2019-04-07T21:02:04.520Z,14.15
2019-04-07T21:04:53.443Z,13.98
2019-04-07T21:07:40.918Z,13.48
2019-04-07T21:10:27.509Z,13.65
2019-04-07T21:13:04.864Z,14.17
2019-04-07T21:15:52.841Z,14.26
2019-04-07T21:18:42.294Z,14.34
2019-04-07T21:21:32.262Z,14.48
2019-04-07T21:24:40.143Z,14.47
2019-04-07T21:27:28.423Z,14.58
2019-04-07T21:30:20.745Z,14.53
2019-04-07T21:33:12.015Z,14.48
2019-04-07T21:36:00.023Z,14.39
2019-04-07T21:38:36.144Z,14.13
2019-04-07T21:41:24.341Z,14.22
2019-04-07T21:44:13.495Z,14.31
2019-04-07T21:47:00.872Z,14.36
2019-04-07T21:49:50.315Z,14.23
2019-04-07T21:52:35.980Z,14.43
2019-04-07T21:55:25.343Z,14.03
2019-04-07T21:58:29.678Z,13.86
2019-04-07T22:01:25.059Z,13.95
2019-04-07T22:04:03.582Z,13.83
2019-04-07T22:06:53.657Z,13.96
2019-04-07T22:09:30.148Z,13.36
2019-04-07T22:12:00.175Z,13.38
2019-04-07T22:14:30.389Z,13.48
2019-04-07T22:17:02.214Z,13.39
2019-04-07T22:19:30.795Z,13.34
2019-04-07T22:22:00.362Z,13.34
2019-04-07T22:24:33.952Z,13.59
2019-04-07T22:27:04.270Z,13.52
2019-04-07T22:29:33.887Z,13.56
2019-04-07T22:32:03.341Z,13.42
2019-04-07T22:34:33.790Z,13.24
2019-04-07T22:37:02.943Z,13.17
2019-04-07T22:39:32.168Z,13.44
2019-04-07T22:42:02.150Z,13.49
2019-04-07T22:44:31.502Z,13.24
2019-04-07T22:47:00.558Z,13.35
2019-04-07T22:49:31.928Z,13.38
2019-04-07T22:52:01.250Z,13.41
2019-04-07T22:54:31.261Z,13.61
2019-04-07T22:57:00.733Z,13.57
2019-04-07T22:59:30.191Z,13.57
2019-04-07T23:01:59.941Z,13.52
2019-04-07T23:04:30.115Z,13.43
2019-04-07T23:06:59.313Z,13.77
2019-04-07T23:09:29.924Z,13.62
2019-04-07T23:12:01.742Z,13.60
2019-04-07T23:14:30.312Z,13.26
2019-04-07T23:16:59.003Z,13.32
2019-04-07T23:19:29.019Z,13.50
2019-04-07T23:21:58.479Z,13.65
2019-04-07T23:24:28.876Z,13.72
2019-04-07T23:26:58.807Z,13.72
2019-04-07T23:29:28.325Z,13.30
2019-04-07T23:31:57.737Z,13.25
2019-04-07T23:34:26.278Z,13.10
2019-04-07T23:36:55.631Z,13.19
2019-04-07T23:39:25.123Z,13.08
2019-04-07T23:41:54.540Z,13.08
2019-04-07T23:44:23.599Z,12.76
2019-04-07T23:46:53.014Z,12.43
2019-04-07T23:49:22.572Z,12.20
2019-04-07T23:51:51.612Z,11.87
2019-04-07T23:54:20.798Z,11.73
2019-04-07T23:56:49.966Z,11.73
2019-04-07T23:59:19.512Z,12.55
